Time;durP1;ratioP1;P1;durP2;ratioP2;P2;SDS_P1;SDS_P2;PMS_P1;PMS_P2;Temp;Humidity;BMP_temperature;BMP_pressure;BME280_temperature;BME280_humidity;BME280_pressure;Samples;Min_cycle;Max_cycle;Signal;HPM_P1;HPM_P2
2022/03/31 00:00:43;;;;;;;6.90;3.50;;;6.60;64.00;;;;;;2373489;56;21113;-75
2022/03/31 00:03:12;;;;;;;4.72;3.33;;;6.60;64.40;;;;;;2626048;52;21070;-75
2022/03/31 00:05:40;;;;;;;5.95;3.45;;;6.60;64.70;;;;;;2373707;56;21108;-75
2022/03/31 00:08:09;;;;;;;6.00;4.03;;;6.50;65.70;;;;;;2373883;56;21035;-75
2022/03/31 00:10:38;;;;;;;7.50;3.70;;;6.50;65.30;;;;;;2374258;56;21090;-75
2022/03/31 00:13:08;;;;;;;7.03;4.15;;;6.50;65.70;;;;;;2374116;56;21090;-75
2022/03/31 00:15:37;;;;;;;6.25;3.87;;;6.40;65.90;;;;;;2625941;52;21051;-75
2022/03/31 00:18:06;;;;;;;10.60;6.20;;;6.40;66.20;;;;;;2627306;52;21035;-75
2022/03/31 00:20:34;;;;;;;5.35;3.53;;;6.40;66.50;;;;;;2372852;56;21055;-76
2022/03/31 00:23:01;;;;;;;7.37;4.20;;;6.30;66.80;;;;;;2374090;56;21039;-74
2022/03/31 00:25:29;;;;;;;6.15;3.90;;;6.30;67.20;;;;;;2373368;56;21063;-75
2022/03/31 00:27:57;;;;;;;9.98;4.62;;;6.30;67.40;;;;;;2373608;56;21023;-75
2022/03/31 00:30:25;;;;;;;6.55;4.03;;;6.20;67.70;;;;;;2374054;56;21119;-75
2022/03/31 00:32:53;;;;;;;7.18;4.35;;;6.20;67.90;;;;;;2372954;56;21091;-76
2022/03/31 00:35:20;;;;;;;7.82;4.95;;;6.20;68.80;;;;;;2626785;52;21058;-75
2022/03/31 00:37:48;;;;;;;7.03;3.85;;;6.20;68.10;;;;;;2373446;56;21036;-76
2022/03/31 00:40:18;;;;;;;6.95;4.78;;;6.10;68.30;;;;;;2373525;56;21055;-75
2022/03/31 00:42:49;;;;;;;7.22;4.00;;;6.10;68.50;;;;;;2627239;52;21051;-76
2022/03/31 00:45:18;;;;;;;10.05;4.72;;;6.10;68.70;;;;;;2373325;56;21058;-75
2022/03/31 00:47:46;;;;;;;6.12;3.95;;;6.10;68.80;;;;;;2374157;56;21070;-75
2022/03/31 00:50:14;;;;;;;5.70;3.80;;;6.00;68.90;;;;;;2373341;56;21031;-75
2022/03/31 00:52:42;;;;;;;13.30;5.03;;;6.00;69.20;;;;;;2373950;56;21035;-76
2022/03/31 00:55:13;;;;;;;6.60;4.03;;;6.00;69.30;;;;;;2373660;56;21131;-76
2022/03/31 00:57:41;;;;;;;6.25;4.30;;;6.00;69.40;;;;;;2373856;56;21035;-76
2022/03/31 01:00:11;;;;;;;7.12;4.25;;;6.00;69.70;;;;;;2374032;56;21586;-76
2022/03/31 01:02:39;;;;;;;6.95;4.78;;;5.90;69.60;;;;;;2374130;56;21122;-75
2022/03/31 01:05:08;;;;;;;6.80;4.30;;;5.90;69.70;;;;;;2373521;56;21067;-76
2022/03/31 01:07:37;;;;;;;9.45;5.10;;;5.90;69.80;;;;;;2373354;56;21055;-74
2022/03/31 01:10:08;;;;;;;9.48;4.70;;;5.90;70.00;;;;;;2373518;56;21538;-75
2022/03/31 01:12:36;;;;;;;6.07;4.30;;;5.80;70.10;;;;;;2374122;56;21039;-76
2022/03/31 01:15:11;;;;;;;8.02;4.25;;;5.80;70.30;;;;;;2627144;52;21079;-75
2022/03/31 01:17:40;;;;;;;5.90;4.22;;;5.80;70.50;;;;;;2372625;56;21126;-75
2022/03/31 01:20:10;;;;;;;10.27;4.93;;;5.70;70.50;;;;;;2373007;56;21078;-76
2022/03/31 01:22:38;;;;;;;6.55;4.35;;;5.70;71.50;;;;;;2372876;56;21086;-76
2022/03/31 01:25:09;;;;;;;9.57;4.82;;;5.70;70.80;;;;;;2373693;56;21043;-75
2022/03/31 01:27:38;;;;;;;7.35;4.35;;;5.60;70.90;;;;;;2373495;56;21059;-76
2022/03/31 01:30:09;;;;;;;6.18;4.80;;;5.60;71.00;;;;;;2627634;52;21039;-75
2022/03/31 01:32:36;;;;;;;7.75;4.70;;;5.50;71.10;;;;;;2374096;56;21052;-75
2022/03/31 01:35:06;;;;;;;8.70;5.47;;;5.50;71.20;;;;;;2373356;56;21593;-75
2022/03/31 01:37:33;;;;;;;8.90;5.25;;;5.50;71.30;;;;;;2372609;56;21105;-75
2022/03/31 01:40:00;;;;;;;9.18;5.53;;;5.50;71.50;;;;;;2372745;56;21106;-75
2022/03/31 01:42:28;;;;;;;8.85;4.80;;;5.50;72.30;;;;;;2373758;56;21131;-75
2022/03/31 01:45:16;;;;;;;9.07;5.43;;;5.50;71.50;;;;;;2373749;56;21106;-75
2022/03/31 01:47:44;;;;;;;6.82;5.07;;;5.50;71.60;;;;;;2229140;60;21244;-73
2022/03/31 01:50:12;;;;;;;11.23;6.28;;;5.50;71.70;;;;;;2229440;60;21093;-73
2022/03/31 01:52:40;;;;;;;11.18;5.62;;;5.50;71.70;;;;;;2229167;60;21343;-73
2022/03/31 01:55:09;;;;;;;11.48;6.62;;;5.40;71.60;;;;;;2450937;56;21605;-73
2022/03/31 01:57:37;;;;;;;7.70;5.45;;;5.40;71.60;;;;;;2228781;60;21083;-73
2022/03/31 02:00:07;;;;;;;14.18;6.62;;;5.30;71.80;;;;;;2229306;60;21098;-73
2022/03/31 02:02:34;;;;;;;9.45;5.55;;;5.30;71.90;;;;;;2229676;60;21586;-74
2022/03/31 02:05:01;;;;;;;10.02;5.20;;;5.30;72.10;;;;;;2228963;60;21087;-72
2022/03/31 02:07:28;;;;;;;8.70;5.85;;;5.30;72.10;;;;;;2229303;60;21082;-74
2022/03/31 02:09:56;;;;;;;10.50;5.90;;;5.20;72.20;;;;;;2228958;60;21166;-73
2022/03/31 02:12:23;;;;;;;10.77;5.32;;;5.20;72.40;;;;;;2229245;60;21155;-73
2022/03/31 02:14:51;;;;;;;11.75;6.57;;;5.10;72.50;;;;;;2228305;60;21095;-73
2022/03/31 02:17:19;;;;;;;11.48;6.07;;;5.10;72.50;;;;;;2229401;60;21091;-73
2022/03/31 02:19:46;;;;;;;10.18;5.70;;;5.20;72.70;;;;;;2229282;60;21170;-72
2022/03/31 02:22:13;;;;;;;10.93;6.43;;;5.20;72.70;;;;;;2229065;60;21091;-74
2022/03/31 02:24:40;;;;;;;8.30;5.93;;;5.10;72.70;;;;;;2229097;60;21095;-72
2022/03/31 02:27:08;;;;;;;12.43;6.68;;;5.10;72.70;;;;;;2450810;56;21135;-73
2022/03/31 02:29:35;;;;;;;9.60;7.00;;;5.10;72.80;;;;;;2229161;60;21151;-73
2022/03/31 02:32:04;;;;;;;11.23;6.78;;;5.00;72.70;;;;;;2229106;60;21079;-73
2022/03/31 02:34:31;;;;;;;10.02;6.68;;;5.10;72.80;;;;;;2450867;56;21084;-72
2022/03/31 02:36:58;;;;;;;10.77;6.85;;;5.10;73.00;;;;;;2450230;56;21131;-73
2022/03/31 02:39:28;;;;;;;11.75;7.47;;;5.00;72.90;;;;;;2229411;60;21313;-73
2022/03/31 02:41:57;;;;;;;17.17;8.90;;;5.00;73.10;;;;;;2451693;56;21083;-73
2022/03/31 02:44:25;;;;;;;11.77;7.30;;;5.00;73.10;;;;;;2229461;60;21150;-73
2022/03/31 02:46:52;;;;;;;14.75;7.65;;;5.00;73.10;;;;;;2229232;60;21175;-73
2022/03/31 02:49:20;;;;;;;9.95;6.70;;;5.00;73.20;;;;;;2229391;60;21083;-71
2022/03/31 02:51:47;;;;;;;12.77;6.62;;;4.90;73.20;;;;;;2228686;60;21092;-74
2022/03/31 02:57:01;;;;;;;11.82;7.75;;;4.90;73.50;;;;;;2229199;60;21203;-72
2022/03/31 02:59:30;;;;;;;10.57;7.35;;;4.90;73.60;;;;;;2229441;60;21163;-71
2022/03/31 03:01:58;;;;;;;10.68;7.07;;;4.80;73.70;;;;;;2229670;60;21203;-73
2022/03/31 03:04:27;;;;;;;10.38;7.55;;;4.80;73.80;;;;;;2229064;60;21155;-73
2022/03/31 03:06:54;;;;;;;10.50;7.62;;;4.90;73.80;;;;;;2229214;60;21135;-72
2022/03/31 03:09:21;;;;;;;11.12;7.53;;;4.90;73.70;;;;;;2227907;60;21139;-72
2022/03/31 03:11:49;;;;;;;10.23;7.32;;;4.90;73.60;;;;;;2228950;60;21479;-72
2022/03/31 03:14:16;;;;;;;12.10;7.78;;;4.90;74.30;;;;;;2229292;60;21070;-72
2022/03/31 03:16:44;;;;;;;12.63;7.28;;;4.80;73.60;;;;;;2228888;60;21609;-71
2022/03/31 03:19:12;;;;;;;11.07;7.78;;;4.80;73.60;;;;;;2229315;60;21087;-72
2022/03/31 03:21:40;;;;;;;11.63;7.35;;;4.80;73.50;;;;;;2229420;60;21142;-70
2022/03/31 03:24:10;;;;;;;11.73;7.53;;;4.80;73.60;;;;;;2229382;60;21574;-71
2022/03/31 03:26:37;;;;;;;13.90;8.15;;;4.80;73.70;;;;;;2227991;60;21166;-72
2022/03/31 03:29:05;;;;;;;10.77;7.05;;;4.80;73.80;;;;;;2229319;60;21150;-71
2022/03/31 03:31:32;;;;;;;14.30;7.50;;;4.80;73.90;;;;;;2229277;60;21154;-72
2022/03/31 03:33:59;;;;;;;11.63;7.40;;;4.80;73.80;;;;;;2229041;60;21155;-71
2022/03/31 03:36:27;;;;;;;12.05;7.50;;;4.70;73.80;;;;;;2229062;60;21099;-72
2022/03/31 03:38:54;;;;;;;11.07;7.05;;;4.70;73.90;;;;;;2229516;60;21087;-72
2022/03/31 03:41:21;;;;;;;11.00;7.55;;;4.70;74.00;;;;;;2229924;60;21080;-71
2022/03/31 03:43:49;;;;;;;11.88;7.90;;;4.70;73.90;;;;;;2227938;60;21075;-71
2022/03/31 03:46:16;;;;;;;12.02;6.80;;;4.60;74.10;;;;;;2229061;60;21091;-72
2022/03/31 03:48:43;;;;;;;12.52;7.20;;;4.60;74.30;;;;;;2229329;60;21095;-72
2022/03/31 03:51:10;;;;;;;13.55;7.72;;;4.60;74.40;;;;;;2229507;60;21600;-71
2022/03/31 03:53:38;;;;;;;12.05;7.12;;;4.60;74.60;;;;;;2229101;60;21091;-70
2022/03/31 03:56:06;;;;;;;11.20;7.25;;;4.60;74.80;;;;;;2228847;60;21565;-71
2022/03/31 03:58:33;;;;;;;11.88;7.32;;;4.60;74.50;;;;;;2450887;56;21669;-72
2022/03/31 04:01:01;;;;;;;11.43;7.60;;;4.60;74.50;;;;;;2228547;60;21151;-71
2022/03/31 04:03:28;;;;;;;12.23;7.18;;;4.60;74.50;;;;;;2229175;60;21365;-72
2022/03/31 04:05:55;;;;;;;21.87;10.07;;;4.60;74.50;;;;;;2228527;60;21091;-72
2022/03/31 04:08:23;;;;;;;13.98;8.18;;;4.60;74.50;;;;;;2451396;56;21127;-71
2022/03/31 04:10:51;;;;;;;13.10;7.65;;;4.60;74.60;;;;;;2229400;60;21071;-70
2022/03/31 04:13:18;;;;;;;11.40;7.22;;;4.50;74.60;;;;;;2451036;56;21075;-72
2022/03/31 04:15:45;;;;;;;12.27;8.00;;;4.50;74.70;;;;;;2228434;60;21341;-72
2022/03/31 04:18:13;;;;;;;10.60;7.30;;;4.40;74.70;;;;;;2230082;60;21075;-72
2022/03/31 04:20:40;;;;;;;11.50;6.80;;;4.40;74.80;;;;;;2230426;60;21164;-72
2022/03/31 04:23:07;;;;;;;10.13;6.90;;;4.40;74.90;;;;;;2230361;60;21230;-72
2022/03/31 04:25:34;;;;;;;11.12;7.22;;;4.40;74.90;;;;;;2229622;60;21099;-72
2022/03/31 04:28:03;;;;;;;10.23;6.95;;;4.40;74.80;;;;;;2230393;60;21167;-71
2022/03/31 04:30:31;;;;;;;10.30;6.25;;;4.40;75.00;;;;;;2229838;60;21155;-71
2022/03/31 04:32:58;;;;;;;10.98;7.20;;;4.30;75.90;;;;;;2230498;60;21171;-71
2022/03/31 04:35:25;;;;;;;11.18;6.47;;;4.40;75.20;;;;;;2229995;60;21230;-72
2022/03/31 04:37:53;;;;;;;11.45;6.95;;;4.30;75.20;;;;;;2229238;60;21167;-72
2022/03/31 04:40:22;;;;;;;12.27;5.80;;;4.30;75.20;;;;;;2229754;60;21898;-71
2022/03/31 04:42:49;;;;;;;10.73;7.10;;;4.30;75.20;;;;;;2228840;60;21139;-70
2022/03/31 04:45:17;;;;;;;9.38;6.62;;;4.30;75.20;;;;;;2229983;60;21410;-70
2022/03/31 04:47:44;;;;;;;15.65;7.65;;;4.30;75.10;;;;;;2452607;56;21650;-72
2022/03/31 04:50:12;;;;;;;11.30;7.20;;;4.30;75.00;;;;;;2230496;60;21558;-72
2022/03/31 04:52:40;;;;;;;10.68;6.75;;;4.30;75.00;;;;;;2229404;60;21167;-72
2022/03/31 04:55:08;;;;;;;11.40;6.80;;;4.30;75.00;;;;;;2230781;60;21147;-72
2022/03/31 04:57:35;;;;;;;18.90;8.55;;;4.30;75.10;;;;;;2223741;60;21357;-73
2022/03/31 05:00:05;;;;;;;11.30;7.10;;;4.20;74.90;;;;;;2230701;60;21099;-72
2022/03/31 05:02:32;;;;;;;9.18;6.78;;;4.20;74.90;;;;;;2230887;60;21091;-72
2022/03/31 05:04:59;;;;;;;10.02;6.80;;;4.20;75.10;;;;;;2230108;60;21160;-72
2022/03/31 05:07:27;;;;;;;10.25;6.57;;;4.30;75.20;;;;;;2210979;60;21091;-72
2022/03/31 05:09:54;;;;;;;10.35;6.30;;;4.30;75.20;;;;;;2230240;60;22161;-73
2022/03/31 05:12:21;;;;;;;10.40;6.62;;;4.30;75.00;;;;;;2230826;60;21071;-72
2022/03/31 05:14:49;;;;;;;11.40;6.37;;;4.30;74.80;;;;;;2230124;60;21087;-71
2022/03/31 05:17:16;;;;;;;16.10;6.72;;;4.30;74.60;;;;;;2230101;60;21086;-72
2022/03/31 05:19:43;;;;;;;9.10;6.75;;;4.30;74.50;;;;;;2230749;60;21143;-72
2022/03/31 05:22:11;;;;;;;20.42;6.72;;;4.30;74.60;;;;;;2452233;56;21071;-72
2022/03/31 05:24:38;;;;;;;8.93;6.20;;;4.30;74.60;;;;;;2230595;60;21151;-71
2022/03/31 05:27:06;;;;;;;7.53;5.47;;;4.20;74.60;;;;;;2230299;60;21095;-71
2022/03/31 05:29:34;;;;;;;9.95;6.80;;;4.20;74.60;;;;;;2452229;56;21701;-72
2022/03/31 05:32:02;;;;;;;9.38;5.57;;;4.20;74.80;;;;;;2452880;56;21215;-72
2022/03/31 05:34:30;;;;;;;9.00;5.47;;;4.20;74.70;;;;;;2230701;60;21083;-72
2022/03/31 05:36:57;;;;;;;11.65;6.05;;;4.30;74.80;;;;;;2230303;60;21087;-72
2022/03/31 05:39:25;;;;;;;10.65;5.70;;;4.30;74.60;;;;;;2229452;60;21087;-72
2022/03/31 05:41:52;;;;;;;12.68;5.80;;;4.30;74.50;;;;;;2451909;56;22204;-71
2022/03/31 05:44:19;;;;;;;10.65;5.35;;;4.30;74.30;;;;;;2230559;60;21091;-71
2022/03/31 05:46:46;;;;;;;8.05;5.57;;;4.20;74.20;;;;;;2230005;60;21485;-71
2022/03/31 05:49:14;;;;;;;9.50;5.43;;;4.20;74.10;;;;;;2230217;60;21638;-71
2022/03/31 05:51:41;;;;;;;10.43;5.55;;;4.20;74.20;;;;;;2230301;60;21092;-71
2022/03/31 05:54:08;;;;;;;9.88;5.30;;;4.20;74.20;;;;;;2227766;60;21104;-71
2022/03/31 05:56:36;;;;;;;8.30;4.80;;;4.10;74.30;;;;;;2229491;60;21218;-72
2022/03/31 05:59:04;;;;;;;9.27;4.97;;;4.10;74.30;;;;;;2229646;60;21091;-72
2022/03/31 06:01:31;;;;;;;8.48;5.45;;;4.10;74.40;;;;;;2230237;60;21078;-72
2022/03/31 06:03:59;;;;;;;9.18;5.03;;;4.10;74.40;;;;;;2230136;60;21195;-71
2022/03/31 06:06:26;;;;;;;10.60;4.43;;;4.10;74.30;;;;;;2229163;60;21095;-71
2022/03/31 06:08:53;;;;;;;8.02;4.47;;;4.00;74.40;;;;;;2230256;60;21622;-72
2022/03/31 06:11:20;;;;;;;7.35;4.85;;;4.00;74.40;;;;;;2229568;60;21174;-71
2022/03/31 06:13:48;;;;;;;5.85;4.10;;;4.00;74.40;;;;;;2230124;60;21678;-72
2022/03/31 06:16:15;;;;;;;7.45;4.68;;;4.00;74.50;;;;;;2450827;56;21685;-71
2022/03/31 06:18:42;;;;;;;7.85;4.10;;;4.10;74.50;;;;;;2230074;60;21578;-72
2022/03/31 06:21:10;;;;;;;10.13;4.62;;;4.10;74.50;;;;;;2229910;60;21079;-72
2022/03/31 06:23:38;;;;;;;9.40;5.05;;;4.10;74.50;;;;;;2229320;60;21182;-72
2022/03/31 06:26:05;;;;;;;7.78;4.68;;;4.10;74.20;;;;;;2229836;60;21610;-71
2022/03/31 06:28:33;;;;;;;14.73;6.28;;;4.10;74.00;;;;;;2229375;60;21182;-71
2022/03/31 06:31:01;;;;;;;7.40;4.35;;;4.10;73.90;;;;;;2229536;60;21139;-72
2022/03/31 06:33:28;;;;;;;9.40;5.20;;;4.10;73.90;;;;;;2229604;60;21600;-71
2022/03/31 06:35:56;;;;;;;6.68;4.18;;;4.10;73.80;;;;;;2229341;60;21169;-71
2022/03/31 06:38:23;;;;;;;7.28;4.25;;;4.10;73.60;;;;;;2229886;60;21083;-71
2022/03/31 06:41:06;;;;;;;7.70;4.53;;;4.10;73.50;;;;;;2229682;60;21170;-72
2022/03/31 06:43:34;;;;;;;7.97;5.57;;;4.10;73.50;;;;;;2230036;60;21128;-71
2022/03/31 06:46:01;;;;;;;9.25;5.00;;;4.10;73.50;;;;;;2229432;60;21598;-71
2022/03/31 06:48:29;;;;;;;8.23;4.45;;;4.10;73.50;;;;;;2229937;60;21618;-71
2022/03/31 06:50:57;;;;;;;5.85;4.28;;;4.20;73.60;;;;;;2229974;60;21099;-71
2022/03/31 06:53:25;;;;;;;6.00;4.25;;;4.20;73.30;;;;;;2229621;60;21238;-71
2022/03/31 06:55:52;;;;;;;7.10;4.72;;;4.20;73.30;;;;;;2451345;56;21139;-71
2022/03/31 06:58:21;;;;;;;7.03;4.10;;;4.30;73.40;;;;;;2229489;60;21091;-71
2022/03/31 07:00:49;;;;;;;8.27;4.55;;;4.20;73.30;;;;;;2230156;60;21079;-71
2022/03/31 07:03:16;;;;;;;9.43;5.15;;;4.30;73.20;;;;;;2229429;60;21147;-71
2022/03/31 07:05:43;;;;;;;26.52;6.55;;;4.30;73.20;;;;;;2229670;60;21155;-71
2022/03/31 07:08:10;;;;;;;5.90;4.10;;;4.40;73.40;;;;;;2230631;60;21159;-72
2022/03/31 07:10:38;;;;;;;5.20;3.70;;;4.40;73.20;;;;;;2230755;60;21179;-70
2022/03/31 07:13:05;;;;;;;5.90;3.80;;;4.50;72.90;;;;;;2452618;56;21570;-71
2022/03/31 07:15:33;;;;;;;6.10;4.22;;;4.50;72.30;;;;;;2227935;60;21099;-72
2022/03/31 07:18:03;;;;;;;9.35;6.78;;;4.50;72.20;;;;;;2229269;60;21171;-72
2022/03/31 07:20:31;;;;;;;5.97;4.00;;;4.50;72.10;;;;;;2228104;60;21091;-71
2022/03/31 07:22:58;;;;;;;6.78;4.10;;;4.50;72.10;;;;;;2228318;60;21103;-72
2022/03/31 07:25:25;;;;;;;6.85;3.70;;;4.60;72.00;;;;;;2226973;60;21185;-71
2022/03/31 07:28:32;;;;;;;7.37;3.75;;;4.70;72.00;;;;;;2171957;60;21483;-73
2022/03/31 07:30:59;;;;;;;5.97;3.90;;;4.70;71.70;;;;;;2230364;60;21095;-72
2022/03/31 07:33:26;;;;;;;8.18;4.50;;;4.90;70.90;;;;;;2230193;60;21592;-72
2022/03/31 07:35:53;;;;;;;7.22;4.80;;;4.90;70.20;;;;;;2230249;60;21589;-73
2022/03/31 07:38:21;;;;;;;8.48;4.47;;;4.80;70.40;;;;;;2230494;60;21083;-72
2022/03/31 07:40:49;;;;;;;6.75;3.97;;;4.80;70.40;;;;;;2230965;60;21131;-72
2022/03/31 07:43:16;;;;;;;6.32;3.95;;;4.70;70.30;;;;;;2230781;60;21079;-72
2022/03/31 07:46:03;;;;;;;7.32;3.90;;;4.70;70.40;;;;;;2230704;60;21155;-72
2022/03/31 07:48:30;;;;;;;4.70;3.83;;;4.70;70.60;;;;;;2526938;54;21144;-80
2022/03/31 07:50:59;;;;;;;8.40;4.80;;;4.70;70.00;;;;;;2527347;54;21135;-79
2022/03/31 07:53:27;;;;;;;9.25;4.57;;;4.70;70.10;;;;;;2292297;58;21155;-79
2022/03/31 07:55:54;;;;;;;6.55;3.72;;;4.70;70.40;;;;;;2527059;54;21083;-80
2022/03/31 07:58:22;;;;;;;7.45;4.37;;;4.70;70.40;;;;;;2292527;58;21083;-80
2022/03/31 08:00:50;;;;;;;7.30;4.00;;;4.70;70.40;;;;;;2292472;58;21074;-80
2022/03/31 08:03:19;;;;;;;6.12;4.15;;;4.70;70.30;;;;;;2527502;55;21076;-80
2022/03/31 08:05:46;;;;;;;5.43;3.58;;;4.70;70.40;;;;;;2526169;54;21091;-79
2022/03/31 08:08:14;;;;;;;6.93;3.87;;;4.70;70.40;;;;;;2527089;54;21068;-80
2022/03/31 08:10:41;;;;;;;7.53;4.05;;;4.80;70.10;;;;;;2292165;58;21072;-81
2022/03/31 08:13:09;;;;;;;5.95;3.92;;;4.80;69.90;;;;;;2526785;54;21115;-80
2022/03/31 08:15:37;;;;;;;7.90;4.30;;;4.80;69.60;;;;;;2527117;54;21131;-78
2022/03/31 08:18:07;;;;;;;5.90;3.78;;;4.80;69.60;;;;;;2527216;55;21167;-80
2022/03/31 08:20:34;;;;;;;8.10;3.90;;;4.80;69.60;;;;;;2291742;58;21065;-80
2022/03/31 08:23:01;;;;;;;6.12;4.53;;;4.80;69.70;;;;;;2291813;58;21071;-79
2022/03/31 08:25:28;;;;;;;8.98;4.65;;;4.80;69.40;;;;;;2526575;54;21080;-79
2022/03/31 08:27:56;;;;;;;7.62;4.12;;;4.80;69.30;;;;;;2526948;55;21061;-79
2022/03/31 08:30:24;;;;;;;5.30;3.50;;;4.80;69.20;;;;;;2526746;54;21076;-80
2022/03/31 08:32:52;;;;;;;7.00;3.50;;;4.80;69.20;;;;;;2292611;58;21052;-81
2022/03/31 08:35:20;;;;;;;7.80;4.50;;;4.80;69.30;;;;;;2527617;54;21064;-78
2022/03/31 08:37:48;;;;;;;5.00;3.75;;;4.90;69.40;;;;;;2292262;58;21147;-81
2022/03/31 08:40:15;;;;;;;6.87;4.18;;;4.90;69.50;;;;;;2292454;58;21135;-80
2022/03/31 08:42:44;;;;;;;6.37;3.85;;;4.90;69.40;;;;;;2292778;58;21056;-81
2022/03/31 08:45:14;;;;;;;7.25;4.10;;;5.00;69.30;;;;;;2292520;58;21587;-82
2022/03/31 08:47:44;;;;;;;6.68;4.10;;;5.00;68.80;;;;;;2291737;58;21130;-81
2022/03/31 08:50:11;;;;;;;7.68;4.15;;;5.10;68.70;;;;;;2291214;58;21194;-78
2022/03/31 08:52:39;;;;;;;6.37;3.80;;;5.10;68.60;;;;;;2525915;54;21068;-79
2022/03/31 08:55:09;;;;;;;11.35;4.12;;;5.20;68.20;;;;;;2290963;58;21607;-78
2022/03/31 08:57:42;;;;;;;6.22;4.15;;;5.20;67.80;;;;;;2292794;58;21083;-80
2022/03/31 09:00:13;;;;;;;5.93;3.70;;;5.30;67.80;;;;;;2293323;58;21552;-79
2022/03/31 09:02:51;;;;;;;6.55;4.12;;;5.30;67.60;;;;;;2525123;54;21127;-79
2022/03/31 09:05:18;;;;;;;7.00;3.92;;;5.40;67.60;;;;;;2524029;54;22238;-77
2022/03/31 09:07:57;;;;;;;6.60;3.85;;;5.40;66.70;;;;;;2290377;58;21079;-78
2022/03/31 09:10:32;;;;;;;6.07;3.70;;;5.50;66.60;;;;;;2525146;54;21651;-77
2022/03/31 09:13:02;;;;;;;6.40;3.55;;;5.50;66.20;;;;;;2290291;58;21155;-77
2022/03/31 09:15:29;;;;;;;6.15;3.75;;;5.50;66.30;;;;;;2525548;54;21063;-77
2022/03/31 09:17:58;;;;;;;6.55;3.78;;;5.60;66.50;;;;;;2291472;58;21536;-77
2022/03/31 09:20:36;;;;;;;6.32;3.85;;;5.60;66.50;;;;;;2526641;54;21516;-77
2022/03/31 09:23:04;;;;;;;6.82;3.80;;;5.70;66.40;;;;;;2291134;58;21064;-78
2022/03/31 09:25:32;;;;;;;9.13;4.05;;;5.80;66.30;;;;;;2526121;54;21119;-78
2022/03/31 09:28:01;;;;;;;9.05;4.40;;;5.80;66.00;;;;;;2291229;58;21128;-77
2022/03/31 09:30:31;;;;;;;5.90;3.62;;;5.90;65.20;;;;;;2291156;58;21492;-77
2022/03/31 09:33:02;;;;;;;7.15;3.97;;;5.90;64.60;;;;;;2526163;55;21152;-78
2022/03/31 09:35:30;;;;;;;8.35;4.18;;;5.90;64.40;;;;;;2290682;58;21055;-77
2022/03/31 09:37:58;;;;;;;8.75;4.68;;;5.90;64.10;;;;;;2525645;55;21124;-75
2022/03/31 09:40:35;;;;;;;5.15;3.58;;;6.00;64.10;;;;;;2523459;54;21108;-77
2022/03/31 09:43:02;;;;;;;9.57;4.03;;;6.00;64.00;;;;;;2291415;58;21080;-78
2022/03/31 09:45:48;;;;;;;7.57;4.28;;;6.00;64.10;;;;;;2290447;58;21068;-77
2022/03/31 09:48:21;;;;;;;4.93;3.30;;;6.10;64.10;;;;;;2289540;58;21564;-78
2022/03/31 09:50:48;;;;;;;;;;;6.20;63.70;;;;;;2293654;58;21132;-78
2022/03/31 09:55:52;;;;;;;5.65;3.83;;;6.20;62.70;;;;;;2369695;56;22650;-72
2022/03/31 09:58:21;;;;;;;9.15;3.58;;;6.20;63.10;;;;;;2374439;56;21046;-71
2022/03/31 10:00:48;;;;;;;7.10;3.53;;;6.30;63.60;;;;;;2374085;56;21046;-72
2022/03/31 10:03:17;;;;;;;4.07;3.00;;;6.30;62.70;;;;;;2374233;56;21634;-72
2022/03/31 10:08:19;;;;;;;5.95;3.37;;;6.30;62.40;;;;;;2308275;57;27822;-72
2022/03/31 10:10:47;;;;;;;4.18;3.12;;;6.30;63.70;;;;;;2344415;57;21053;-71
2022/03/31 10:13:19;;;;;;;5.12;2.72;;;6.50;63.00;;;;;;2594299;53;21038;-71
2022/03/31 10:15:48;;;;;;;4.32;2.75;;;6.40;61.00;;;;;;2360981;56;21384;-69
2022/03/31 10:18:17;;;;;;;4.03;2.72;;;6.40;59.80;;;;;;2372604;56;21134;-71
2022/03/31 10:20:56;;;;;;;5.82;3.58;;;6.40;59.80;;;;;;2374280;56;21031;-71
2022/03/31 10:26:20;;;;;;;4.55;2.97;;;6.50;59.90;;;;;;2373703;56;21086;-70
2022/03/31 10:28:55;;;;;;;4.75;3.00;;;6.50;59.70;;;;;;2374587;56;21043;-70
2022/03/31 10:31:32;;;;;;;7.60;2.40;;;6.50;59.50;;;;;;2374631;56;21050;-70
2022/03/31 10:34:00;;;;;;;6.87;3.28;;;6.60;59.60;;;;;;2373962;56;21031;-70
2022/03/31 10:36:37;;;;;;;4.00;2.50;;;6.60;59.00;;;;;;2372451;56;21047;-71
2022/03/31 10:39:08;;;;;;;4.03;2.72;;;6.60;58.10;;;;;;2374471;56;21197;-70
2022/03/31 10:41:37;;;;;;;6.28;2.62;;;6.60;58.30;;;;;;2627866;52;21019;-70
2022/03/31 10:44:16;;;;;;;3.80;2.55;;;6.70;57.10;;;;;;2374660;56;21027;-70
2022/03/31 10:46:45;;;;;;;3.00;2.08;;;6.70;56.00;;;;;;2374646;56;21062;-71
2022/03/31 10:49:19;;;;;;;4.30;2.80;;;6.70;56.10;;;;;;2374842;56;21058;-70
2022/03/31 10:51:46;;;;;;;4.72;2.87;;;6.70;56.40;;;;;;2374754;56;21383;-70
2022/03/31 10:54:26;;;;;;;3.08;2.37;;;6.80;55.80;;;;;;2374337;56;21647;-71
2022/03/31 10:57:07;;;;;;;6.85;2.67;;;6.80;55.50;;;;;;2628367;52;21035;-71
2022/03/31 10:59:36;;;;;;;3.92;2.65;;;6.80;55.10;;;;;;2373532;56;21114;-71
2022/03/31 11:02:10;;;;;;;4.90;2.45;;;6.90;56.50;;;;;;2628510;52;21023;-71
2022/03/31 11:04:45;;;;;;;3.60;2.70;;;7.00;56.60;;;;;;2375435;56;21138;-71
2022/03/31 11:07:18;;;;;;;5.45;2.85;;;7.10;56.70;;;;;;2374542;56;21552;-72
2022/03/31 11:09:46;;;;;;;4.10;2.70;;;7.20;56.10;;;;;;2375478;56;21165;-72
2022/03/31 11:12:24;;;;;;;3.83;2.40;;;7.20;54.90;;;;;;2373959;56;21038;-71
2022/03/31 11:14:56;;;;;;;4.87;2.47;;;7.30;55.20;;;;;;2374656;56;21150;-72
2022/03/31 11:17:23;;;;;;;2.72;2.10;;;7.30;54.80;;;;;;2373646;56;21043;-72
2022/03/31 11:19:53;;;;;;;2.87;2.25;;;7.30;54.50;;;;;;2373308;56;21063;-71
2022/03/31 11:22:21;;;;;;;4.28;2.58;;;7.40;54.00;;;;;;2373732;56;21134;-71
2022/03/31 11:24:50;;;;;;;4.37;2.22;;;7.40;54.30;;;;;;2624893;52;21078;-72
2022/03/31 11:27:30;;;;;;;5.85;2.12;;;7.60;53.80;;;;;;2372983;56;21031;-73
2022/03/31 11:29:58;;;;;;;3.58;2.00;;;7.60;52.30;;;;;;2373066;56;21051;-72
2022/03/31 11:32:31;;;;;;;3.40;2.30;;;7.60;50.90;;;;;;2372824;56;21058;-70
2022/03/31 11:34:58;;;;;;;5.65;2.42;;;7.60;50.60;;;;;;2373343;56;21071;-74
2022/03/31 11:37:26;;;;;;;2.78;2.08;;;7.60;50.30;;;;;;2373049;56;21545;-73
2022/03/31 11:39:54;;;;;;;4.45;1.95;;;7.60;49.60;;;;;;2373277;56;21066;-72
2022/03/31 11:42:21;;;;;;;2.90;2.10;;;7.60;50.10;;;;;;2372675;56;21039;-72
2022/03/31 11:44:48;;;;;;;2.55;1.85;;;7.70;50.70;;;;;;2372295;56;21569;-72
2022/03/31 11:47:20;;;;;;;3.80;2.10;;;7.70;49.40;;;;;;2372121;56;21125;-69
2022/03/31 11:49:58;;;;;;;2.17;1.73;;;7.70;49.00;;;;;;2371804;56;21063;-73
2022/03/31 11:52:33;;;;;;;3.83;1.90;;;7.80;48.10;;;;;;2373613;56;21035;-72
2022/03/31 11:55:02;;;;;;;4.43;2.33;;;7.90;48.50;;;;;;2372245;56;21200;-72
2022/03/31 11:57:29;;;;;;;2.37;1.58;;;7.90;47.80;;;;;;2371857;56;21059;-72
2022/03/31 12:00:07;;;;;;;3.12;1.80;;;8.00;46.60;;;;;;2373296;56;21376;-70
2022/03/31 12:02:34;;;;;;;3.15;1.92;;;8.10;47.00;;;;;;2373285;56;21042;-71
2022/03/31 12:05:04;;;;;;;2.70;1.73;;;8.20;46.70;;;;;;2373108;56;21055;-72
2022/03/31 12:07:32;;;;;;;2.75;1.83;;;8.30;47.50;;;;;;2372938;56;21035;-72
2022/03/31 12:09:59;;;;;;;2.55;1.70;;;8.40;48.40;;;;;;2373057;56;21054;-70
2022/03/31 12:12:26;;;;;;;4.40;1.65;;;8.50;48.00;;;;;;2372786;56;21509;-71
2022/03/31 12:14:55;;;;;;;3.35;1.70;;;8.60;47.60;;;;;;2373300;56;21046;-72
2022/03/31 12:17:23;;;;;;;2.95;1.50;;;8.60;46.70;;;;;;2372731;56;21082;-72
2022/03/31 12:19:51;;;;;;;2.78;1.67;;;8.60;46.50;;;;;;2373507;56;21054;-72
2022/03/31 12:22:41;;;;;;;4.10;1.92;;;8.70;46.50;;;;;;2372938;56;21113;-71
2022/03/31 12:25:08;;;;;;;2.53;2.00;;;8.70;45.80;;;;;;2372754;56;21050;-72
2022/03/31 12:27:46;;;;;;;2.28;1.58;;;8.80;46.00;;;;;;2373937;56;21035;-72
2022/03/31 12:30:15;;;;;;;7.10;2.03;;;8.80;45.80;;;;;;2373944;56;21051;-72
2022/03/31 12:32:47;;;;;;;2.70;1.50;;;8.80;46.80;;;;;;2627707;52;21027;-72
2022/03/31 12:35:15;;;;;;;3.22;1.80;;;8.80;46.90;;;;;;2373698;56;21132;-72
2022/03/31 12:37:45;;;;;;;1.95;1.73;;;8.80;42.70;;;;;;2626777;52;21129;-73
2022/03/31 12:42:54;;;;;;;3.17;1.80;;;8.90;43.20;;;;;;2326575;57;22135;-72
2022/03/31 12:45:24;;;;;;;2.28;1.60;;;8.90;41.60;;;;;;2355652;56;21130;-72
2022/03/31 12:47:51;;;;;;;2.33;1.25;;;8.90;41.90;;;;;;2374335;56;21071;-72
2022/03/31 12:50:21;;;;;;;1.90;1.27;;;8.90;41.90;;;;;;2374535;56;21621;-72
2022/03/31 12:52:56;;;;;;;1.40;1.30;;;8.80;41.60;;;;;;2374764;56;21123;-72
2022/03/31 12:55:30;;;;;;;3.70;1.58;;;8.90;41.50;;;;;;2626998;52;21118;-72
2022/03/31 12:57:59;;;;;;;1.77;1.42;;;8.80;41.20;;;;;;2373738;56;21363;-72
2022/03/31 13:00:28;;;;;;;1.70;1.30;;;8.80;41.10;;;;;;2627852;52;21635;-72
2022/03/31 13:02:57;;;;;;;2.00;1.40;;;8.80;40.10;;;;;;2374242;56;21138;-72
2022/03/31 13:05:25;;;;;;;2.85;1.83;;;8.80;39.70;;;;;;2374205;56;21125;-72
2022/03/31 13:07:54;;;;;;;2.60;1.40;;;8.80;39.80;;;;;;2374026;56;21186;-72
2022/03/31 13:10:23;;;;;;;1.20;1.10;;;8.90;40.30;;;;;;2627927;52;21042;-72
2022/03/31 13:12:52;;;;;;;2.35;1.50;;;8.90;39.40;;;;;;2373967;56;21129;-73
2022/03/31 13:15:21;;;;;;;5.62;1.40;;;9.00;40.10;;;;;;2626917;52;21114;-72
2022/03/31 13:17:48;;;;;;;1.73;1.30;;;9.00;40.30;;;;;;2374515;56;21035;-72